Time;durP1;ratioP1;P1;durP2;ratioP2;P2;SDS_P1;SDS_P2;PMS_P1;PMS_P2;Temp;Humidity;BMP_temperature;BMP_pressure;BME280_temperature;BME280_humidity;BME280_pressure;Samples;Min_cycle;Max_cycle;Signal;HPM_P1;HPM_P2
2023/05/29 00:02:08;;;;;;;10.57;4.55;;;14.70;1.00;;;;;;6271362;22;20894;-75
2023/05/29 00:04:33;;;;;;;11.65;4.78;;;14.70;1.00;;;;;;6271462;22;20377;-75
2023/05/29 00:06:59;;;;;;;14.00;4.97;;;14.70;1.00;;;;;;6270791;22;20414;-75
2023/05/29 00:09:25;;;;;;;12.38;5.07;;;14.70;1.00;;;;;;6271933;22;20390;-75
2023/05/29 00:11:52;;;;;;;14.83;4.83;;;14.70;1.00;;;;;;6271874;22;20363;-75
2023/05/29 00:14:19;;;;;;;11.67;4.80;;;14.60;1.00;;;;;;6271392;22;20376;-75
2023/05/29 00:16:46;;;;;;;12.43;4.50;;;14.60;1.00;;;;;;6271351;22;20836;-75
2023/05/29 00:19:13;;;;;;;12.20;5.10;;;14.60;1.00;;;;;;6272016;22;20356;-75
2023/05/29 00:21:39;;;;;;;12.25;4.75;;;14.60;1.00;;;;;;6271955;22;20360;-75
2023/05/29 00:24:04;;;;;;;12.65;5.32;;;14.50;1.00;;;;;;6271017;22;20360;-75
2023/05/29 00:26:30;;;;;;;13.52;5.28;;;14.40;1.00;;;;;;6270938;22;20423;-75
2023/05/29 00:28:55;;;;;;;10.95;4.95;;;14.40;1.00;;;;;;6271225;22;20685;-75
2023/05/29 00:31:21;;;;;;;11.00;4.30;;;14.50;1.00;;;;;;6270768;22;20352;-75
2023/05/29 00:33:46;;;;;;;10.33;5.00;;;14.50;1.00;;;;;;6271601;22;20336;-75
2023/05/29 00:36:12;;;;;;;12.03;4.50;;;14.50;1.00;;;;;;6285300;22;20383;-75
2023/05/29 00:38:37;;;;;;;11.88;4.40;;;14.50;1.00;;;;;;6300176;22;20380;-75
2023/05/29 00:41:03;;;;;;;11.97;5.07;;;14.40;1.00;;;;;;6297787;22;20383;-75
2023/05/29 00:43:29;;;;;;;10.63;4.20;;;14.40;1.00;;;;;;6272247;22;20359;-76
2023/05/29 00:45:54;;;;;;;12.80;4.60;;;14.20;1.00;;;;;;6270920;22;20363;-75
2023/05/29 00:48:20;;;;;;;11.35;4.60;;;14.10;76.90;;;;;;6271184;22;20360;-75
2023/05/29 00:50:46;;;;;;;13.20;3.97;;;14.10;99.90;;;;;;6271069;22;20714;-75
2023/05/29 00:53:12;;;;;;;11.57;4.20;;;14.00;99.90;;;;;;6271642;22;20372;-75
2023/05/29 00:55:38;;;;;;;9.10;3.90;;;14.10;99.90;;;;;;6270346;22;20376;-75
2023/05/29 00:58:04;;;;;;;12.50;4.43;;;14.00;99.90;;;;;;6270796;22;20348;-75
2023/05/29 01:00:30;;;;;;;9.47;4.00;;;14.00;99.90;;;;;;6270562;22;20354;-75
2023/05/29 01:02:58;;;;;;;14.65;4.30;;;14.00;99.90;;;;;;6271036;22;20431;-75
2023/05/29 01:05:23;;;;;;;10.90;4.03;;;13.90;99.90;;;;;;6270673;22;20356;-75
2023/05/29 01:07:50;;;;;;;10.80;4.33;;;13.80;99.90;;;;;;6271129;22;20825;-75
2023/05/29 01:10:16;;;;;;;13.30;4.63;;;13.70;1.00;;;;;;6270441;22;20363;-75
2023/05/29 01:12:53;;;;;;;12.18;4.40;;;13.70;1.00;;;;;;6271508;22;20341;-75
2023/05/29 01:15:43;;;;;;;11.57;4.43;;;13.70;1.00;;;;;;6270247;22;20390;-75
2023/05/29 01:18:32;;;;;;;10.67;4.13;;;13.70;1.00;;;;;;6271685;22;20526;-75
2023/05/29 01:21:35;;;;;;;10.85;3.97;;;13.70;1.00;;;;;;6270741;22;20720;-75
2023/05/29 01:24:28;;;;;;;10.30;4.60;;;13.60;1.00;;;;;;6270753;22;20427;-75
2023/05/29 01:27:01;;;;;;;10.70;4.47;;;13.60;1.00;;;;;;6270475;22;20402;-75
2023/05/29 01:29:31;;;;;;;11.80;4.60;;;13.60;1.00;;;;;;6270083;22;20398;-75
2023/05/29 01:31:57;;;;;;;9.60;3.60;;;13.50;1.00;;;;;;6244129;22;20639;-75
2023/05/29 01:34:23;;;;;;;12.35;4.30;;;13.40;42.30;;;;;;6270240;22;20476;-75
2023/05/29 01:36:49;;;;;;;10.70;4.33;;;13.50;1.00;;;;;;6270467;22;20379;-75
2023/05/29 01:39:15;;;;;;;9.43;3.97;;;13.40;43.10;;;;;;6270305;22;20372;-75
2023/05/29 01:41:43;;;;;;;11.18;3.88;;;13.30;99.90;;;;;;6271128;22;20386;-75
2023/05/29 01:44:10;;;;;;;9.25;3.60;;;13.40;99.90;;;;;;6270958;22;20550;-75
2023/05/29 01:46:40;;;;;;;8.98;4.00;;;13.40;95.10;;;;;;6270375;22;20838;-75
2023/05/29 01:49:07;;;;;;;12.85;4.10;;;13.30;44.00;;;;;;6270214;22;20383;-75
2023/05/29 01:51:32;;;;;;;12.25;3.88;;;13.30;99.90;;;;;;6270498;22;20383;-75
2023/05/29 01:54:02;;;;;;;11.27;4.40;;;13.20;99.90;;;;;;6270786;22;20353;-75
2023/05/29 01:56:29;;;;;;;8.38;3.67;;;13.20;99.90;;;;;;6270113;22;20750;-75
2023/05/29 01:58:56;;;;;;;9.30;4.57;;;13.10;99.90;;;;;;6270042;22;20360;-75
2023/05/29 02:01:22;;;;;;;11.73;4.00;;;13.10;99.90;;;;;;6270503;22;20361;-75
2023/05/29 02:03:48;;;;;;;10.95;4.22;;;13.10;99.90;;;;;;6269878;22;20367;-75
2023/05/29 02:06:13;;;;;;;9.70;3.87;;;13.00;99.90;;;;;;6270640;22;20395;-75
2023/05/29 02:08:39;;;;;;;11.85;4.60;;;13.00;99.90;;;;;;6273220;22;20425;-75
2023/05/29 02:11:05;;;;;;;11.17;4.10;;;12.90;1.00;;;;;;6272562;22;20398;-75
2023/05/29 02:13:31;;;;;;;13.80;4.63;;;12.90;1.00;;;;;;6272015;22;20356;-75
2023/05/29 02:15:57;;;;;;;11.23;4.20;;;12.80;1.00;;;;;;6272263;22;20391;-75
2023/05/29 02:18:23;;;;;;;12.13;4.20;;;12.80;1.00;;;;;;6272027;22;20625;-75
2023/05/29 02:20:48;;;;;;;10.50;3.30;;;12.80;1.00;;;;;;6272210;22;20352;-75
2023/05/29 02:23:15;;;;;;;10.67;3.97;;;12.80;1.00;;;;;;6272361;22;20371;-75
2023/05/29 02:25:41;;;;;;;12.33;3.83;;;12.80;1.00;;;;;;6273085;22;20359;-75
2023/05/29 02:28:07;;;;;;;9.38;3.75;;;12.80;1.00;;;;;;6272354;22;20836;-75
2023/05/29 02:30:32;;;;;;;11.40;4.20;;;12.70;1.00;;;;;;6272339;22;20357;-75
2023/05/29 02:32:58;;;;;;;10.13;3.80;;;12.70;1.00;;;;;;6272001;22;20356;-75
2023/05/29 02:35:23;;;;;;;13.52;3.55;;;12.60;99.90;;;;;;6272092;22;20455;-75
2023/05/29 02:37:49;;;;;;;10.07;3.90;;;12.60;21.00;;;;;;6272167;22;20779;-75
2023/05/29 02:40:16;;;;;;;9.30;3.58;;;12.50;40.30;;;;;;6271817;22;20360;-75
2023/05/29 02:42:41;;;;;;;9.13;3.92;;;12.40;99.90;;;;;;6272931;22;20653;-75
2023/05/29 02:45:07;;;;;;;10.67;3.70;;;12.40;99.90;;;;;;6272078;22;20360;-75
2023/05/29 02:47:33;;;;;;;10.20;3.13;;;12.30;1.00;;;;;;6272108;22;20348;-75
2023/05/29 02:49:58;;;;;;;12.20;4.40;;;12.30;1.00;;;;;;6272316;22;20353;-75
2023/05/29 02:52:24;;;;;;;10.80;3.73;;;12.20;1.00;;;;;;6272637;22;20487;-75
2023/05/29 02:54:49;;;;;;;10.00;4.40;;;12.20;1.00;;;;;;6271798;22;20360;-75
2023/05/29 02:57:15;;;;;;;10.33;4.20;;;12.10;1.00;;;;;;6272253;22;20352;-75
2023/05/29 02:59:41;;;;;;;12.40;4.60;;;12.10;30.00;;;;;;6272240;22;20356;-75
2023/05/29 03:02:07;;;;;;;8.63;3.80;;;12.00;99.90;;;;;;6271657;22;20363;-75
2023/05/29 03:04:33;;;;;;;10.65;3.40;;;12.00;99.90;;;;;;6272182;22;20662;-75
2023/05/29 03:06:58;;;;;;;10.13;3.70;;;12.00;99.90;;;;;;6271374;22;20820;-75
2023/05/29 03:09:24;;;;;;;10.45;3.55;;;12.00;99.90;;;;;;6271547;22;20348;-75
2023/05/29 03:11:50;;;;;;;9.05;4.03;;;11.90;99.90;;;;;;6270620;22;20364;-75
2023/05/29 03:14:16;;;;;;;11.77;4.20;;;11.80;1.00;;;;;;6271764;22;20394;-75
2023/05/29 03:16:43;;;;;;;10.32;4.28;;;11.70;1.00;;;;;;6271898;22;20836;-75
2023/05/29 03:19:09;;;;;;;8.82;3.70;;;11.70;12.10;;;;;;6272055;22;20362;-75
2023/05/29 03:21:35;;;;;;;9.90;4.00;;;11.70;1.00;;;;;;6271054;22;20380;-75
2023/05/29 03:24:02;;;;;;;10.97;4.03;;;11.70;1.00;;;;;;6271285;22;20463;-75
2023/05/29 03:26:28;;;;;;;10.65;4.30;;;11.60;1.40;;;;;;6271622;22;20356;-75
2023/05/29 03:28:54;;;;;;;9.23;3.50;;;11.60;99.90;;;;;;6271653;22;20657;-75
2023/05/29 03:31:19;;;;;;;9.57;3.70;;;11.60;99.90;;;;;;6271543;22;20406;-75
2023/05/29 03:33:45;;;;;;;8.85;3.88;;;11.50;99.90;;;;;;6271887;22;20435;-75
2023/05/29 03:36:11;;;;;;;9.30;4.03;;;11.50;1.00;;;;;;6272363;22;20480;-75
2023/05/29 03:38:36;;;;;;;11.07;3.85;;;11.50;99.90;;;;;;6271470;22;20387;-75
2023/05/29 03:41:02;;;;;;;9.07;3.90;;;11.60;99.90;;;;;;6272181;22;20352;-75
2023/05/29 03:43:28;;;;;;;9.18;3.67;;;11.50;99.90;;;;;;6272315;22;20365;-75
2023/05/29 03:45:53;;;;;;;11.47;4.30;;;11.50;99.90;;;;;;6272115;22;20435;-75
2023/05/29 03:48:19;;;;;;;11.40;4.23;;;11.50;1.00;;;;;;6272838;22;20431;-75
2023/05/29 03:50:46;;;;;;;8.98;4.10;;;11.50;1.00;;;;;;6272718;22;20371;-75
2023/05/29 03:53:12;;;;;;;11.30;4.10;;;11.50;1.00;;;;;;6272692;22;20348;-75
2023/05/29 03:55:37;;;;;;;9.25;4.18;;;11.50;1.00;;;;;;6271811;22;20390;-75
2023/05/29 03:58:03;;;;;;;11.57;4.50;;;11.60;99.90;;;;;;6271478;22;20490;-75
2023/05/29 04:00:28;;;;;;;11.77;3.95;;;11.50;1.00;;;;;;6270982;22;20372;-75
2023/05/29 04:02:55;;;;;;;12.20;3.60;;;11.60;1.00;;;;;;6271955;22;20855;-75
2023/05/29 04:05:21;;;;;;;13.00;4.43;;;11.70;99.90;;;;;;6271460;22;20422;-75
2023/05/29 04:07:46;;;;;;;12.35;4.53;;;11.70;99.90;;;;;;6243713;22;20450;-75
2023/05/29 04:10:12;;;;;;;11.17;4.10;;;11.80;92.80;;;;;;6272311;22;20356;-75
2023/05/29 04:12:38;;;;;;;12.20;4.00;;;11.80;99.90;;;;;;6271591;22;20352;-75
2023/05/29 04:15:04;;;;;;;13.38;4.28;;;11.90;99.90;;;;;;6270712;22;20360;-75
2023/05/29 04:17:29;;;;;;;10.77;4.43;;;12.00;99.90;;;;;;6269565;22;20534;-75
2023/05/29 04:19:55;;;;;;;13.30;4.50;;;12.00;1.00;;;;;;6271308;22;20730;-75
2023/05/29 04:22:20;;;;;;;12.13;4.30;;;12.30;1.00;;;;;;6270460;22;20356;-75
2023/05/29 04:24:46;;;;;;;12.38;4.80;;;12.40;99.90;;;;;;6271234;22;20937;-75
2023/05/29 04:27:13;;;;;;;15.67;5.20;;;12.50;99.90;;;;;;6271556;22;20348;-75
2023/05/29 04:29:42;;;;;;;12.00;4.47;;;12.60;99.90;;;;;;6271023;22;20357;-75
2023/05/29 04:32:11;;;;;;;11.73;3.80;;;12.60;99.90;;;;;;6271229;22;20475;-75
2023/05/29 04:34:39;;;;;;;11.43;4.05;;;12.70;18.70;;;;;;6270830;22;20368;-75
2023/05/29 04:37:05;;;;;;;9.77;3.65;;;12.80;1.00;;;;;;6270367;22;20395;-75
2023/05/29 04:39:31;;;;;;;9.98;4.07;;;13.00;55.70;;;;;;6271099;22;20355;-75
2023/05/29 04:41:58;;;;;;;13.13;4.50;;;13.20;1.00;;;;;;6270542;22;20356;-75
2023/05/29 04:44:26;;;;;;;10.30;4.30;;;13.40;1.00;;;;;;6270386;22;20384;-75
2023/05/29 04:46:52;;;;;;;9.10;3.90;;;13.50;99.90;;;;;;6270858;22;20349;-75
2023/05/29 04:49:18;;;;;;;10.73;3.70;;;13.50;1.00;;;;;;6270731;22;20435;-75
2023/05/29 04:51:44;;;;;;;10.93;4.10;;;13.80;1.00;;;;;;6272183;22;20413;-76
2023/05/29 04:54:12;;;;;;;9.73;4.20;;;14.10;99.90;;;;;;6271846;22;20851;-76
2023/05/29 04:56:39;;;;;;;12.27;3.88;;;14.70;1.00;;;;;;6270279;22;20391;-76
2023/05/29 04:59:06;;;;;;;9.63;3.97;;;15.50;99.90;;;;;;6270698;22;20352;-76
2023/05/29 05:01:33;;;;;;;10.45;3.90;;;16.50;1.00;;;;;;6270757;22;20428;-76
2023/05/29 05:03:59;;;;;;;9.70;3.85;;;17.80;1.00;;;;;;6270785;22;20361;-76
2023/05/29 05:06:26;;;;;;;11.10;3.70;;;18.70;99.90;;;;;;6271327;22;20351;-76
2023/05/29 05:08:52;;;;;;;12.82;3.30;;;19.50;99.90;;;;;;6293489;22;20359;-76
2023/05/29 05:11:23;;;;;;;9.30;3.72;;;20.30;99.90;;;;;;6288230;22;20368;-76
2023/05/29 05:13:49;;;;;;;8.93;3.40;;;21.10;99.90;;;;;;6271693;22;20360;-76
2023/05/29 05:16:14;;;;;;;10.13;3.75;;;21.70;99.90;;;;;;6270178;22;20463;-76
2023/05/29 05:18:40;;;;;;;9.33;3.53;;;22.50;99.90;;;;;;6271321;22;20388;-76
2023/05/29 05:21:06;;;;;;;8.93;3.50;;;23.30;99.90;;;;;;6270510;22;20340;-76
2023/05/29 05:23:32;;;;;;;9.73;4.00;;;24.00;99.90;;;;;;6270813;22;20356;-76
2023/05/29 05:25:57;;;;;;;9.00;4.45;;;24.30;99.90;;;;;;6269935;22;20390;-77
2023/05/29 05:28:23;;;;;;;10.43;5.10;;;24.80;99.90;;;;;;6270459;22;20360;-77
2023/05/29 05:30:48;;;;;;;10.30;5.80;;;25.00;99.90;;;;;;6270557;22;20359;-77
2023/05/29 05:33:14;;;;;;;11.40;5.70;;;25.40;99.90;;;;;;6270377;22;20405;-77
2023/05/29 05:35:39;;;;;;;10.43;5.60;;;25.20;99.90;;;;;;6270335;22;20384;-77
2023/05/29 05:38:06;;;;;;;9.57;5.80;;;25.20;99.90;;;;;;6270461;22;20379;-77
2023/05/29 05:40:31;;;;;;;8.37;5.70;;;25.20;99.90;;;;;;6242505;22;20360;-77
2023/05/29 05:42:57;;;;;;;10.83;5.50;;;25.90;99.90;;;;;;6270223;22;20440;-77
2023/05/29 05:45:22;;;;;;;9.27;5.90;;;26.00;99.90;;;;;;6270650;22;20352;-77
2023/05/29 05:47:48;;;;;;;11.80;6.80;;;26.50;99.90;;;;;;6270438;22;20391;-77
2023/05/29 05:50:13;;;;;;;9.45;6.55;;;27.30;99.90;;;;;;6270636;22;20352;-77
2023/05/29 05:52:39;;;;;;;9.35;5.97;;;26.70;99.90;;;;;;6271260;22;20372;-77
2023/05/29 05:55:05;;;;;;;9.93;6.40;;;25.80;99.90;;;;;;6270093;22;20392;-76
2023/05/29 05:57:32;;;;;;;11.10;6.25;;;25.30;99.90;;;;;;6271064;22;20440;-76
2023/05/29 06:00:11;;;;;;;11.95;6.35;;;25.20;99.90;;;;;;6270787;22;20467;-77
2023/05/29 06:02:42;;;;;;;10.73;6.20;;;25.50;99.90;;;;;;6270502;22;20376;-77
2023/05/29 06:05:09;;;;;;;11.30;6.93;;;26.70;99.90;;;;;;6267149;22;20355;-76
2023/05/29 06:07:35;;;;;;;9.73;6.17;;;26.80;99.90;;;;;;6269546;22;20380;-76
2023/05/29 06:10:01;;;;;;;9.80;5.90;;;26.30;99.90;;;;;;6269252;22;20758;-76
2023/05/29 06:12:27;;;;;;;10.63;5.95;;;26.50;99.90;;;;;;6270067;22;20352;-76
2023/05/29 06:14:52;;;;;;;10.02;6.78;;;27.00;99.90;;;;;;6270309;22;20435;-76
2023/05/29 06:17:18;;;;;;;11.30;7.10;;;26.70;99.90;;;;;;6270960;22;20407;-76
2023/05/29 06:19:44;;;;;;;11.55;8.98;;;27.10;99.90;;;;;;6270025;22;20355;-76
2023/05/29 06:22:09;;;;;;;12.05;7.63;;;28.00;99.90;;;;;;6270957;22;20360;-76
2023/05/29 06:24:35;;;;;;;10.77;6.90;;;28.70;99.90;;;;;;6269920;22;20356;-77
2023/05/29 06:27:01;;;;;;;10.53;6.53;;;28.40;99.90;;;;;;6269939;22;20662;-77
2023/05/29 06:29:26;;;;;;;10.23;8.40;;;28.50;99.90;;;;;;6270201;22;20650;-77
2023/05/29 06:31:52;;;;;;;9.80;8.47;;;28.80;99.90;;;;;;6269956;22;20443;-77
2023/05/29 06:34:18;;;;;;;10.03;6.37;;;29.20;99.90;;;;;;6270376;22;20870;-77
2023/05/29 06:36:43;;;;;;;9.30;3.35;;;30.20;99.90;;;;;;6270836;22;20836;-77
2023/05/29 06:39:10;;;;;;;9.17;5.30;;;30.10;99.90;;;;;;6269761;22;20823;-77
2023/05/29 06:41:35;;;;;;;9.43;2.95;;;30.60;99.90;;;;;;6267154;22;20415;-77
2023/05/29 06:44:01;;;;;;;10.20;3.80;;;29.70;99.90;;;;;;6268354;22;20360;-77
2023/05/29 06:46:27;;;;;;;8.68;3.40;;;29.60;99.90;;;;;;6269859;22;20355;-76
2023/05/29 06:48:52;;;;;;;9.18;3.40;;;30.30;99.90;;;;;;6269317;22;20359;-76
2023/05/29 06:51:18;;;;;;;9.97;3.40;;;30.90;99.90;;;;;;6269017;22;20387;-76
2023/05/29 06:53:44;;;;;;;8.95;2.92;;;30.30;99.90;;;;;;6271311;22;20398;-77
2023/05/29 06:56:09;;;;;;;10.65;4.28;;;30.10;99.90;;;;;;6271415;22;20421;-77
2023/05/29 06:58:35;;;;;;;8.40;3.53;;;30.10;99.90;;;;;;6271808;22;20357;-76
2023/05/29 07:01:01;;;;;;;8.60;3.28;;;30.50;99.90;;;;;;6271258;22;20828;-76
2023/05/29 07:03:27;;;;;;;8.60;3.40;;;30.50;99.90;;;;;;6271318;22;20886;-77
2023/05/29 07:05:52;;;;;;;8.82;6.93;;;30.30;99.90;;;;;;6271482;22;20348;-76
2023/05/29 07:08:18;;;;;;;10.27;7.57;;;29.80;99.90;;;;;;6270831;22;20686;-76
2023/05/29 07:10:44;;;;;;;8.53;6.80;;;29.90;99.90;;;;;;6270725;22;20424;-77
2023/05/29 07:13:15;;;;;;;9.07;6.80;;;30.50;99.90;;;;;;6271666;22;20352;-77
2023/05/29 07:15:41;;;;;;;9.82;7.28;;;31.20;99.90;;;;;;6271397;22;20388;-77
2023/05/29 07:18:06;;;;;;;10.83;7.13;;;31.20;99.90;;;;;;6269705;22;20356;-77
2023/05/29 07:20:32;;;;;;;11.30;8.30;;;30.70;99.90;;;;;;6270556;22;20352;-77
2023/05/29 07:22:57;;;;;;;10.47;6.27;;;30.20;99.90;;;;;;6270737;22;20349;-77
2023/05/29 07:25:23;;;;;;;9.10;4.77;;;30.40;99.90;;;;;;6242780;22;20685;-76
2023/05/29 07:27:48;;;;;;;10.00;6.95;;;30.80;99.90;;;;;;6271016;22;20367;-76
2023/05/29 07:30:15;;;;;;;9.93;7.57;;;31.10;99.90;;;;;;6270430;22;20747;-76
2023/05/29 07:32:41;;;;;;;11.83;7.47;;;30.50;99.90;;;;;;6271649;22;20457;-76
2023/05/29 07:35:06;;;;;;;9.23;4.40;;;29.80;99.90;;;;;;6270439;22;20388;-76
2023/05/29 07:37:33;;;;;;;11.15;8.18;;;30.70;99.90;;;;;;6270246;22;21016;-78
2023/05/29 07:39:59;;;;;;;8.63;5.10;;;30.50;99.90;;;;;;6270714;22;20431;-76
2023/05/29 07:42:24;;;;;;;9.85;6.90;;;31.10;99.90;;;;;;6271237;22;20387;-76
2023/05/29 07:44:50;;;;;;;9.60;4.23;;;31.70;99.90;;;;;;6270741;22;20707;-76
2023/05/29 07:47:15;;;;;;;8.50;3.40;;;30.90;99.90;;;;;;6271074;22;20348;-76
2023/05/29 07:49:41;;;;;;;9.50;4.40;;;30.50;99.90;;;;;;6271497;22;20356;-75
2023/05/29 07:52:07;;;;;;;11.38;4.10;;;30.10;99.90;;;;;;6269568;22;20839;-75
2023/05/29 07:54:33;;;;;;;10.63;5.72;;;29.80;99.90;;;;;;6270552;22;20352;-76
2023/05/29 07:57:00;;;;;;;11.40;9.47;;;30.50;99.90;;;;;;6271085;22;20467;-76
2023/05/29 07:59:26;;;;;;;12.27;7.27;;;30.70;99.90;;;;;;6271004;22;20345;-76
2023/05/29 08:01:51;;;;;;;8.63;5.63;;;31.50;99.90;;;;;;6274552;22;20414;-76
2023/05/29 08:04:17;;;;;;;9.90;3.10;;;31.30;99.90;;;;;;6298865;22;20351;-77
2023/05/29 08:06:43;;;;;;;10.47;3.70;;;31.30;99.90;;;;;;6299509;22;20356;-77
2023/05/29 08:09:09;;;;;;;9.82;4.00;;;31.50;99.90;;;;;;6281036;22;20363;-76
2023/05/29 08:11:36;;;;;;;7.47;3.28;;;32.00;99.90;;;;;;6270577;22;20696;-76
2023/05/29 08:14:02;;;;;;;8.55;3.50;;;31.70;99.90;;;;;;6269741;22;20438;-76
2023/05/29 08:16:27;;;;;;;7.75;3.20;;;31.20;99.90;;;;;;6269145;22;20384;-76
2023/05/29 08:18:53;;;;;;;8.82;3.95;;;31.20;99.90;;;;;;6269458;22;20363;-76
2023/05/29 08:21:19;;;;;;;9.67;3.80;;;31.70;99.90;;;;;;6268814;22;20744;-76
2023/05/29 08:23:45;;;;;;;8.30;3.15;;;31.60;99.90;;;;;;6270417;22;20719;-76
2023/05/29 08:26:10;;;;;;;9.10;3.80;;;32.00;99.90;;;;;;6271202;22;20364;-75
2023/05/29 08:28:36;;;;;;;10.87;4.93;;;32.40;99.90;;;;;;6270102;22;20409;-76
2023/05/29 08:31:03;;;;;;;9.30;4.28;;;33.60;99.90;;;;;;6268984;22;20435;-76
2023/05/29 08:33:30;;;;;;;9.05;5.10;;;35.10;99.90;;;;;;6268054;22;20837;-76
2023/05/29 08:35:57;;;;;;;9.55;4.70;;;34.60;99.90;;;;;;6270217;22;20463;-76
2023/05/29 08:38:25;;;;;;;8.55;6.07;;;33.30;99.90;;;;;;6269579;22;20398;-76
2023/05/29 08:40:51;;;;;;;11.80;8.02;;;31.80;99.90;;;;;;6270193;22;20348;-76
2023/05/29 08:43:21;;;;;;;9.82;7.07;;;31.70;99.90;;;;;;6269382;22;20356;-77
2023/05/29 08:45:51;;;;;;;9.38;7.20;;;32.50;99.90;;;;;;6270295;22;20693;-76
2023/05/29 08:48:18;;;;;;;10.63;7.23;;;32.90;99.90;;;;;;6268397;22;20360;-76
2023/05/29 08:50:46;;;;;;;9.98;7.40;;;33.00;99.90;;;;;;6269828;22;20352;-75
2023/05/29 08:53:13;;;;;;;9.88;7.70;;;34.10;99.90;;;;;;6270598;22;20336;-75
2023/05/29 08:55:38;;;;;;;10.10;8.15;;;33.80;99.90;;;;;;6270851;22;20406;-75
2023/05/29 08:58:05;;;;;;;10.50;7.20;;;32.60;99.90;;;;;;6270370;22;20881;-75
2023/05/29 09:00:31;;;;;;;8.63;3.53;;;33.40;99.90;;;;;;6270252;22;20361;-74
2023/05/29 09:02:59;;;;;;;7.90;2.90;;;34.00;99.90;;;;;;6269425;22;20381;-75
2023/05/29 09:05:27;;;;;;;11.80;3.78;;;33.60;99.90;;;;;;6269665;22;20423;-75
2023/05/29 09:07:53;;;;;;;9.07;3.70;;;33.70;99.90;;;;;;6270041;22;20464;-75
2023/05/29 09:10:20;;;;;;;11.23;3.33;;;33.90;99.90;;;;;;6270594;22;20353;-75
2023/05/29 09:12:46;;;;;;;9.15;7.05;;;34.10;99.90;;;;;;6270159;22;20375;-75
2023/05/29 09:15:23;;;;;;;9.68;5.90;;;33.30;99.90;;;;;;6271172;22;20809;-75
2023/05/29 09:17:58;;;;;;;10.13;5.97;;;33.80;99.90;;;;;;6272230;22;20440;-76
2023/05/29 09:20:24;;;;;;;11.17;4.40;;;34.10;99.90;;;;;;6269585;22;20836;-75
2023/05/29 09:22:56;;;;;;;12.60;3.63;;;34.60;99.90;;;;;;6271009;22;20431;-75
2023/05/29 09:25:27;;;;;;;8.82;3.70;;;34.70;99.90;;;;;;6269775;22;20347;-75
2023/05/29 09:27:59;;;;;;;9.00;6.05;;;34.10;99.90;;;;;;6270237;22;20380;-75
2023/05/29 09:30:32;;;;;;;9.48;5.82;;;34.00;99.90;;;;;;6270494;22;20336;-75
2023/05/29 09:33:03;;;;;;;9.52;3.10;;;34.60;99.90;;;;;;6269570;22;20372;-75
2023/05/29 09:35:34;;;;;;;11.13;6.20;;;34.50;99.90;;;;;;6270538;22;20447;-75
2023/05/29 09:38:01;;;;;;;10.68;6.95;;;34.30;99.90;;;;;;6270669;22;20372;-76
2023/05/29 09:40:26;;;;;;;8.32;4.68;;;34.40;99.90;;;;;;6270769;22;20362;-76
2023/05/29 09:42:55;;;;;;;10.05;3.50;;;35.30;99.90;;;;;;6269820;22;20428;-77
2023/05/29 09:45:22;;;;;;;9.43;5.82;;;35.70;99.90;;;;;;6270571;22;20409;-76
2023/05/29 09:47:50;;;;;;;10.65;6.32;;;34.50;99.90;;;;;;6270381;22;20352;-76
2023/05/29 09:50:23;;;;;;;9.57;6.05;;;34.60;99.90;;;;;;6270370;22;20337;-76
2023/05/29 09:52:53;;;;;;;10.13;3.20;;;34.70;99.90;;;;;;6270690;22;20352;-76
2023/05/29 09:55:21;;;;;;;10.95;6.13;;;34.50;99.90;;;;;;6270143;22;20392;-76
2023/05/29 09:57:48;;;;;;;9.47;5.90;;;34.20;99.90;;;;;;6270303;22;20702;-76
2023/05/29 10:00:16;;;;;;;8.38;5.97;;;33.90;99.90;;;;;;6269992;22;20351;-76
2023/05/29 10:02:41;;;;;;;10.70;6.30;;;34.20;99.90;;;;;;6269878;22;20384;-76
2023/05/29 10:05:08;;;;;;;8.30;5.37;;;33.80;99.90;;;;;;6269484;22;20418;-76
2023/05/29 10:07:36;;;;;;;8.73;5.82;;;34.60;99.90;;;;;;6270437;22;20391;-76
2023/05/29 10:10:05;;;;;;;10.13;5.82;;;34.80;99.90;;;;;;6270615;22;20394;-76
2023/05/29 10:12:34;;;;;;;10.80;5.70;;;34.40;99.90;;;;;;6269968;22;20760;-76
2023/05/29 10:15:01;;;;;;;11.48;6.07;;;34.60;99.90;;;;;;6270778;22;20348;-74
2023/05/29 10:17:33;;;;;;;9.50;6.13;;;33.80;99.90;;;;;;6269891;22;20413;-74
2023/05/29 10:20:01;;;;;;;9.00;5.45;;;33.30;99.90;;;;;;6270197;22;20366;-74
2023/05/29 10:22:28;;;;;;;9.60;6.15;;;32.40;99.90;;;;;;6270234;22;20356;-74
2023/05/29 10:24:56;;;;;;;11.15;5.82;;;32.30;99.90;;;;;;6269911;22;20427;-74
2023/05/29 10:27:21;;;;;;;9.90;5.78;;;32.60;99.90;;;;;;6269872;22;20355;-76
2023/05/29 10:29:55;;;;;;;11.38;6.13;;;32.00;99.90;;;;;;6271866;22;20388;-76
2023/05/29 10:32:32;;;;;;;9.05;6.13;;;31.50;99.90;;;;;;6271397;22;20360;-76
2023/05/29 10:35:19;;;;;;;9.90;6.90;;;31.50;99.90;;;;;;6271065;22;20437;-76
2023/05/29 10:37:57;;;;;;;10.77;7.53;;;30.90;99.90;;;;;;6271129;22;20387;-76
2023/05/29 10:40:25;;;;;;;10.32;6.90;;;30.40;99.90;;;;;;6272112;22;20375;-76
2023/05/29 10:42:54;;;;;;;11.40;7.40;;;30.10;99.90;;;;;;6271355;22;20383;-75
2023/05/29 10:45:31;;;;;;;9.97;6.50;;;29.80;99.90;;;;;;6271396;22;20440;-75
2023/05/29 10:48:12;;;;;;;12.10;7.30;;;29.80;99.90;;;;;;6270528;22;20363;-76
2023/05/29 10:50:46;;;;;;;12.15;6.57;;;29.40;99.90;;;;;;6271127;22;20352;-76
2023/05/29 10:53:17;;;;;;;8.80;6.50;;;29.60;99.90;;;;;;6271346;22;20457;-76
2023/05/29 10:55:44;;;;;;;12.23;7.10;;;29.70;99.90;;;;;;6271605;22;20380;-76
2023/05/29 10:58:18;;;;;;;9.75;6.30;;;30.00;99.90;;;;;;6271929;22;20855;-75
2023/05/29 11:00:48;;;;;;;9.20;6.60;;;29.60;99.90;;;;;;6271367;22;20431;-76
2023/05/29 11:03:21;;;;;;;8.57;6.20;;;29.10;99.90;;;;;;6270596;22;20360;-75
2023/05/29 11:06:05;;;;;;;10.35;6.70;;;29.20;99.90;;;;;;6244367;22;20393;-76
2023/05/29 11:08:47;;;;;;;10.70;6.93;;;28.90;99.90;;;;;;6271676;22;21228;-75
2023/05/29 11:11:14;;;;;;;7.72;5.90;;;28.70;99.90;;;;;;6272089;22;20427;-73
2023/05/29 11:13:44;;;;;;;8.38;6.20;;;28.90;99.90;;;;;;6271914;22;21295;-73
2023/05/29 11:16:25;;;;;;;10.02;6.10;;;29.10;99.90;;;;;;6272933;22;20575;-73
2023/05/29 11:18:52;;;;;;;10.60;6.25;;;29.00;99.90;;;;;;6297563;22;20372;-75
2023/05/29 11:21:33;;;;;;;10.55;6.60;;;29.40;99.90;;;;;;6298499;22;20353;-75
2023/05/29 11:24:02;;;;;;;10.45;6.10;;;29.50;99.90;;;;;;6277007;22;20352;-75
2023/05/29 11:26:29;;;;;;;8.27;6.10;;;29.40;99.90;;;;;;6271460;22;20360;-74
2023/05/29 11:29:06;;;;;;;9.38;6.63;;;29.10;99.90;;;;;;6271358;22;20591;-74
2023/05/29 11:31:34;;;;;;;8.77;6.10;;;29.00;99.90;;;;;;6271368;22;20352;-74
2023/05/29 11:34:02;;;;;;;9.55;6.28;;;29.10;99.90;;;;;;6270879;22;20475;-74
2023/05/29 11:36:28;;;;;;;10.48;5.90;;;29.00;99.90;;;;;;6270903;22;20384;-74
2023/05/29 11:38:53;;;;;;;8.80;5.93;;;28.70;99.90;;;;;;6270798;22;20375;-75
2023/05/29 11:41:19;;;;;;;8.13;5.60;;;29.00;99.90;;;;;;6270603;22;20366;-75
2023/05/29 11:43:56;;;;;;;10.30;6.03;;;29.40;99.90;;;;;;6270876;22;20843;-75
2023/05/29 11:46:21;;;;;;;9.80;6.40;;;29.40;99.90;;;;;;6270634;22;20354;-75
2023/05/29 11:48:48;;;;;;;9.00;6.40;;;29.50;99.90;;;;;;6270392;22;20451;-75
2023/05/29 11:51:14;;;;;;;8.60;6.10;;;29.20;99.90;;;;;;6271755;22;20356;-75
2023/05/29 11:53:46;;;;;;;8.68;6.30;;;29.20;99.90;;;;;;6271873;22;20360;-75
2023/05/29 11:56:12;;;;;;;9.55;6.63;;;29.40;99.90;;;;;;6272459;22;20891;-76
2023/05/29 11:58:42;;;;;;;8.60;6.20;;;29.00;99.90;;;;;;6271264;22;20357;-75
2023/05/29 12:01:08;;;;;;;7.70;6.05;;;29.00;99.90;;;;;;6271280;22;20384;-75
2023/05/29 12:03:40;;;;;;;11.70;6.43;;;28.70;99.90;;;;;;6244881;22;20395;-75
2023/05/29 12:06:07;;;;;;;9.23;6.72;;;28.70;99.90;;;;;;6270148;22;20360;-75
2023/05/29 12:08:34;;;;;;;9.55;6.20;;;28.90;99.90;;;;;;6270199;22;20344;-75
2023/05/29 12:11:02;;;;;;;8.63;6.50;;;28.90;99.90;;;;;;6273173;22;20352;-75
2023/05/29 12:13:28;;;;;;;8.43;6.07;;;29.40;99.90;;;;;;6271250;22;21123;-76
2023/05/29 12:15:58;;;;;;;9.07;6.22;;;29.10;99.90;;;;;;6271463;22;20427;-74
2023/05/29 12:18:24;;;;;;;8.48;6.50;;;29.00;99.90;;;;;;6270809;22;20367;-74
2023/05/29 12:20:50;;;;;;;9.03;6.37;;;29.00;99.90;;;;;;6270628;22;20360;-74
2023/05/29 12:23:20;;;;;;;7.87;5.80;;;28.70;99.90;;;;;;6270486;22;20362;-74
2023/05/29 12:25:46;;;;;;;10.52;6.30;;;28.70;99.90;;;;;;6270031;22;20372;-74
2023/05/29 12:28:16;;;;;;;9.18;5.85;;;28.80;99.90;;;;;;6272336;22;20367;-74
2023/05/29 12:30:43;;;;;;;8.63;5.80;;;28.80;99.90;;;;;;6270929;22;20356;-74
2023/05/29 12:33:09;;;;;;;10.20;7.57;;;28.90;99.90;;;;;;6271291;22;20360;-75
2023/05/29 12:35:34;;;;;;;10.23;6.60;;;28.80;99.90;;;;;;6270507;22;20471;-74
2023/05/29 12:38:04;;;;;;;8.77;6.00;;;28.80;99.90;;;;;;6270272;22;20384;-75
2023/05/29 12:40:33;;;;;;;10.38;6.20;;;28.70;99.90;;;;;;6270700;22;20421;-75
2023/05/29 12:43:10;;;;;;;8.50;6.10;;;28.70;99.90;;;;;;6270885;22;20464;-74
2023/05/29 12:45:36;;;;;;;7.88;6.00;;;28.80;99.90;;;;;;6270789;22;20356;-75